sensor_id;sensor_type;location;lat;lon;timestamp;pressure;altitude;pressure_sealevel;temperature;humidity
24858;BME280;12935;50.782;6.074;2023-04-26T00:00:12;99775.16;;;5.13;100.00
24858;BME280;12935;50.782;6.074;2023-04-26T00:02:38;99773.31;;;5.17;100.00
24858;BME280;12935;50.782;6.074;2023-04-26T00:05:05;99767.03;;;5.13;100.00
24858;BME280;12935;50.782;6.074;2023-04-26T00:07:31;99769.75;;;5.13;100.00
24858;BME280;12935;50.782;6.074;2023-04-26T00:09:58;99774.13;;;5.17;100.00
24858;BME280;12935;50.782;6.074;2023-04-26T00:12:23;99769.13;;;5.04;100.00
24858;BME280;12935;50.782;6.074;2023-04-26T00:14:49;99768.94;;;4.97;100.00
24858;BME280;12935;50.782;6.074;2023-04-26T00:17:14;99768.25;;;4.84;100.00
24858;BME280;12935;50.782;6.074;2023-04-26T00:19:40;99762.06;;;4.83;100.00
24858;BME280;12935;50.782;6.074;2023-04-26T00:22:05;99762.38;;;4.66;100.00
24858;BME280;12935;50.782;6.074;2023-04-26T00:24:31;99766.13;;;4.62;100.00
24858;BME280;12935;50.782;6.074;2023-04-26T00:26:57;99766.47;;;4.60;100.00
24858;BME280;12935;50.782;6.074;2023-04-26T00:29:22;99758.00;;;4.62;100.00
24858;BME280;12935;50.782;6.074;2023-04-26T00:31:48;99768.56;;;4.51;100.00
24858;BME280;12935;50.782;6.074;2023-04-26T00:34:13;99756.59;;;4.52;100.00
24858;BME280;12935;50.782;6.074;2023-04-26T00:36:38;99765.59;;;4.56;100.00
24858;BME280;12935;50.782;6.074;2023-04-26T00:39:03;99760.81;;;4.65;100.00
24858;BME280;12935;50.782;6.074;2023-04-26T00:41:29;99765.50;;;4.52;100.00
24858;BME280;12935;50.782;6.074;2023-04-26T00:43:55;99764.72;;;4.52;100.00
24858;BME280;12935;50.782;6.074;2023-04-26T00:46:21;99760.44;;;4.51;100.00
24858;BME280;12935;50.782;6.074;2023-04-26T00:48:46;99755.47;;;4.53;100.00
24858;BME280;12935;50.782;6.074;2023-04-26T00:51:12;99767.44;;;4.52;100.00
24858;BME280;12935;50.782;6.074;2023-04-26T00:53:38;99756.84;;;4.47;100.00
24858;BME280;12935;50.782;6.074;2023-04-26T00:56:05;99759.38;;;4.40;100.00
24858;BME280;12935;50.782;6.074;2023-04-26T00:58:32;99761.63;;;4.38;100.00
24858;BME280;12935;50.782;6.074;2023-04-26T01:00:57;99753.19;;;4.39;100.00
24858;BME280;12935;50.782;6.074;2023-04-26T01:03:23;99764.59;;;4.33;100.00
24858;BME280;12935;50.782;6.074;2023-04-26T01:05:49;99760.19;;;4.28;100.00
24858;BME280;12935;50.782;6.074;2023-04-26T01:08:14;99761.09;;;4.32;100.00
24858;BME280;12935;50.782;6.074;2023-04-26T01:10:48;99762.72;;;4.21;100.00
24858;BME280;12935;50.782;6.074;2023-04-26T01:13:14;99767.44;;;4.24;100.00
24858;BME280;12935;50.782;6.074;2023-04-26T01:15:46;99761.50;;;4.18;100.00
24858;BME280;12935;50.782;6.074;2023-04-26T01:18:12;99759.69;;;4.22;100.00
24858;BME280;12935;50.782;6.074;2023-04-26T01:20:40;99767.13;;;4.13;100.00
24858;BME280;12935;50.782;6.074;2023-04-26T01:23:07;99763.28;;;4.14;100.00
24858;BME280;12935;50.782;6.074;2023-04-26T01:25:33;99764.88;;;4.15;100.00
24858;BME280;12935;50.782;6.074;2023-04-26T01:27:58;99760.69;;;4.18;100.00
24858;BME280;12935;50.782;6.074;2023-04-26T01:30:24;99756.88;;;4.19;100.00
24858;BME280;12935;50.782;6.074;2023-04-26T01:32:49;99751.91;;;4.21;100.00
24858;BME280;12935;50.782;6.074;2023-04-26T01:35:15;99758.88;;;4.22;100.00
24858;BME280;12935;50.782;6.074;2023-04-26T01:37:40;99762.16;;;4.15;100.00
24858;BME280;12935;50.782;6.074;2023-04-26T01:40:06;99751.75;;;4.02;100.00
24858;BME280;12935;50.782;6.074;2023-04-26T01:42:31;99758.63;;;3.99;100.00
24858;BME280;12935;50.782;6.074;2023-04-26T01:44:57;99756.53;;;3.93;100.00
24858;BME280;12935;50.782;6.074;2023-04-26T01:47:22;99752.66;;;3.94;100.00
24858;BME280;12935;50.782;6.074;2023-04-26T01:49:47;99755.34;;;3.94;100.00
24858;BME280;12935;50.782;6.074;2023-04-26T01:52:13;99753.03;;;3.92;100.00
24858;BME280;12935;50.782;6.074;2023-04-26T01:54:38;99752.56;;;3.90;100.00
24858;BME280;12935;50.782;6.074;2023-04-26T01:57:03;99751.00;;;3.89;100.00
24858;BME280;12935;50.782;6.074;2023-04-26T01:59:29;99745.16;;;3.87;100.00
24858;BME280;12935;50.782;6.074;2023-04-26T02:01:54;99749.44;;;3.88;100.00
24858;BME280;12935;50.782;6.074;2023-04-26T02:04:19;99751.69;;;3.86;100.00
24858;BME280;12935;50.782;6.074;2023-04-26T02:06:44;99761.38;;;3.87;100.00
24858;BME280;12935;50.782;6.074;2023-04-26T02:09:10;99747.09;;;3.74;100.00
24858;BME280;12935;50.782;6.074;2023-04-26T02:11:35;99747.22;;;3.66;100.00
24858;BME280;12935;50.782;6.074;2023-04-26T02:14:00;99753.22;;;3.59;100.00
24858;BME280;12935;50.782;6.074;2023-04-26T02:16:26;99758.50;;;3.56;100.00
24858;BME280;12935;50.782;6.074;2023-04-26T02:18:51;99760.63;;;3.62;100.00
24858;BME280;12935;50.782;6.074;2023-04-26T02:21:17;99750.41;;;3.56;100.00
24858;BME280;12935;50.782;6.074;2023-04-26T02:23:43;99750.84;;;3.58;100.00
24858;BME280;12935;50.782;6.074;2023-04-26T02:26:08;99752.19;;;3.51;100.00
24858;BME280;12935;50.782;6.074;2023-04-26T02:28:33;99756.59;;;3.56;100.00
24858;BME280;12935;50.782;6.074;2023-04-26T02:31:01;99765.25;;;3.49;100.00
24858;BME280;12935;50.782;6.074;2023-04-26T02:33:26;99759.19;;;3.52;100.00
24858;BME280;12935;50.782;6.074;2023-04-26T02:35:51;99761.09;;;3.52;100.00
24858;BME280;12935;50.782;6.074;2023-04-26T02:38:16;99764.38;;;3.45;100.00
24858;BME280;12935;50.782;6.074;2023-04-26T02:40:42;99754.44;;;3.49;100.00
24858;BME280;12935;50.782;6.074;2023-04-26T02:43:07;99761.31;;;3.47;100.00
24858;BME280;12935;50.782;6.074;2023-04-26T02:45:39;99752.22;;;3.39;100.00
24858;BME280;12935;50.782;6.074;2023-04-26T02:48:05;99758.06;;;3.41;100.00
24858;BME280;12935;50.782;6.074;2023-04-26T02:50:30;99753.34;;;3.38;100.00
24858;BME280;12935;50.782;6.074;2023-04-26T02:52:55;99752.22;;;3.39;100.00
24858;BME280;12935;50.782;6.074;2023-04-26T02:55:20;99742.22;;;3.40;100.00
24858;BME280;12935;50.782;6.074;2023-04-26T02:57:46;99750.88;;;3.45;100.00
24858;BME280;12935;50.782;6.074;2023-04-26T03:00:11;99751.19;;;3.32;100.00
24858;BME280;12935;50.782;6.074;2023-04-26T03:02:38;99746.94;;;3.18;100.00
24858;BME280;12935;50.782;6.074;2023-04-26T03:05:03;99734.22;;;3.19;100.00
24858;BME280;12935;50.782;6.074;2023-04-26T03:07:29;99732.66;;;3.18;100.00
24858;BME280;12935;50.782;6.074;2023-04-26T03:09:55;99729.63;;;3.20;100.00
24858;BME280;12935;50.782;6.074;2023-04-26T03:12:20;99730.19;;;3.25;100.00
24858;BME280;12935;50.782;6.074;2023-04-26T03:14:46;99721.06;;;3.17;100.00
24858;BME280;12935;50.782;6.074;2023-04-26T03:17:11;99717.13;;;3.15;100.00
24858;BME280;12935;50.782;6.074;2023-04-26T03:19:36;99715.13;;;3.12;100.00
24858;BME280;12935;50.782;6.074;2023-04-26T03:22:02;99709.38;;;3.13;100.00
24858;BME280;12935;50.782;6.074;2023-04-26T03:24:27;99716.25;;;3.11;100.00
24858;BME280;12935;50.782;6.074;2023-04-26T03:26:52;99721.28;;;3.00;100.00
24858;BME280;12935;50.782;6.074;2023-04-26T03:29:17;99721.41;;;2.92;100.00
24858;BME280;12935;50.782;6.074;2023-04-26T03:31:43;99721.41;;;2.92;100.00
24858;BME280;12935;50.782;6.074;2023-04-26T03:34:08;99726.81;;;3.04;100.00
24858;BME280;12935;50.782;6.074;2023-04-26T03:36:34;99720.41;;;2.96;100.00
24858;BME280;12935;50.782;6.074;2023-04-26T03:38:59;99723.78;;;2.93;100.00
24858;BME280;12935;50.782;6.074;2023-04-26T03:41:24;99714.19;;;2.83;100.00
24858;BME280;12935;50.782;6.074;2023-04-26T03:43:50;99708.38;;;2.81;100.00
24858;BME280;12935;50.782;6.074;2023-04-26T03:46:15;99713.53;;;2.87;100.00
24858;BME280;12935;50.782;6.074;2023-04-26T03:48:40;99713.78;;;2.81;100.00
24858;BME280;12935;50.782;6.074;2023-04-26T03:51:06;99709.81;;;2.79;100.00
24858;BME280;12935;50.782;6.074;2023-04-26T03:53:31;99712.41;;;2.88;100.00
24858;BME280;12935;50.782;6.074;2023-04-26T03:55:57;99712.97;;;2.81;100.00
24858;BME280;12935;50.782;6.074;2023-04-26T03:58:24;99716.88;;;2.83;100.00
24858;BME280;12935;50.782;6.074;2023-04-26T04:00:50;99723.44;;;2.83;100.00
24858;BME280;12935;50.782;6.074;2023-04-26T04:03:15;99714.97;;;2.84;100.00
24858;BME280;12935;50.782;6.074;2023-04-26T04:05:40;99717.59;;;2.80;100.00
24858;BME280;12935;50.782;6.074;2023-04-26T04:08:06;99720.84;;;2.86;100.00
24858;BME280;12935;50.782;6.074;2023-04-26T04:10:31;99717.59;;;2.80;100.00
24858;BME280;12935;50.782;6.074;2023-04-26T04:12:56;99721.41;;;2.79;100.00
24858;BME280;12935;50.782;6.074;2023-04-26T04:15:22;99717.56;;;2.68;100.00
24858;BME280;12935;50.782;6.074;2023-04-26T04:17:47;99714.97;;;2.72;100.00
24858;BME280;12935;50.782;6.074;2023-04-26T04:20:12;99713.63;;;2.66;100.00
24858;BME280;12935;50.782;6.074;2023-04-26T04:22:38;99720.47;;;2.51;100.00
24858;BME280;12935;50.782;6.074;2023-04-26T04:25:05;99723.84;;;2.48;100.00
24858;BME280;12935;50.782;6.074;2023-04-26T04:27:31;99732.94;;;2.68;100.00
24858;BME280;12935;50.782;6.074;2023-04-26T04:29:56;99731.75;;;2.77;100.00
24858;BME280;12935;50.782;6.074;2023-04-26T04:32:21;99738.06;;;2.81;100.00
24858;BME280;12935;50.782;6.074;2023-04-26T04:34:48;99732.53;;;2.78;100.00
24858;BME280;12935;50.782;6.074;2023-04-26T04:37:13;99740.41;;;2.83;100.00
24858;BME280;12935;50.782;6.074;2023-04-26T04:39:39;99736.94;;;2.83;100.00
24858;BME280;12935;50.782;6.074;2023-04-26T04:42:04;99742.13;;;2.55;100.00
24858;BME280;12935;50.782;6.074;2023-04-26T04:44:30;99731.75;;;2.32;100.00
24858;BME280;12935;50.782;6.074;2023-04-26T04:46:55;99738.81;;;2.25;100.00
24858;BME280;12935;50.782;6.074;2023-04-26T04:49:20;99731.91;;;2.36;100.00
24858;BME280;12935;50.782;6.074;2023-04-26T04:51:46;99733.38;;;2.58;100.00
24858;BME280;12935;50.782;6.074;2023-04-26T04:54:13;99745.31;;;2.69;100.00
24858;BME280;12935;50.782;6.074;2023-04-26T04:56:39;99751.88;;;2.80;100.00
24858;BME280;12935;50.782;6.074;2023-04-26T04:59:04;99743.22;;;2.87;100.00
24858;BME280;12935;50.782;6.074;2023-04-26T05:01:31;99758.06;;;2.93;100.00
24858;BME280;12935;50.782;6.074;2023-04-26T05:04:00;99760.09;;;3.08;100.00
24858;BME280;12935;50.782;6.074;2023-04-26T05:06:26;99757.06;;;3.09;100.00
24858;BME280;12935;50.782;6.074;2023-04-26T05:08:52;99766.06;;;3.13;100.00
24858;BME280;12935;50.782;6.074;2023-04-26T05:11:17;99762.59;;;3.25;100.00
24858;BME280;12935;50.782;6.074;2023-04-26T05:13:42;99768.44;;;3.39;100.00
24858;BME280;12935;50.782;6.074;2023-04-26T05:16:08;99762.56;;;3.37;100.00
24858;BME280;12935;50.782;6.074;2023-04-26T05:18:33;99770.44;;;3.42;100.00
24858;BME280;12935;50.782;6.074;2023-04-26T05:20:58;99775.06;;;3.42;100.00
24858;BME280;12935;50.782;6.074;2023-04-26T05:23:23;99770.00;;;3.40;100.00
24858;BME280;12935;50.782;6.074;2023-04-26T05:25:49;99768.44;;;3.39;100.00
24858;BME280;12935;50.782;6.074;2023-04-26T05:28:15;99765.38;;;3.41;100.00
24858;BME280;12935;50.782;6.074;2023-04-26T05:30:40;99772.69;;;3.52;100.00
24858;BME280;12935;50.782;6.074;2023-04-26T05:33:06;99776.75;;;3.59;100.00
24858;BME280;12935;50.782;6.074;2023-04-26T05:35:32;99767.25;;;3.65;100.00
24858;BME280;12935;50.782;6.074;2023-04-26T05:37:57;99772.31;;;3.66;100.00
24858;BME280;12935;50.782;6.074;2023-04-26T05:40:23;99770.28;;;3.75;100.00
24858;BME280;12935;50.782;6.074;2023-04-26T05:42:49;99778.38;;;3.87;100.00
24858;BME280;12935;50.782;6.074;2023-04-26T05:45:15;99773.75;;;3.88;100.00
24858;BME280;12935;50.782;6.074;2023-04-26T05:47:40;99771.00;;;4.00;100.00
24858;BME280;12935;50.782;6.074;2023-04-26T05:50:06;99770.50;;;4.10;100.00
24858;BME280;12935;50.782;6.074;2023-04-26T05:52:32;99779.81;;;4.25;100.00
24858;BME280;12935;50.782;6.074;2023-04-26T05:54:57;99783.84;;;4.31;100.00
24858;BME280;12935;50.782;6.074;2023-04-26T05:57:22;99790.25;;;4.39;100.00
24858;BME280;12935;50.782;6.074;2023-04-26T05:59:48;99788.19;;;4.48;100.00
24858;BME280;12935;50.782;6.074;2023-04-26T06:02:13;99782.53;;;4.53;100.00
24858;BME280;12935;50.782;6.074;2023-04-26T06:04:38;99786.28;;;4.64;100.00
24858;BME280;12935;50.782;6.074;2023-04-26T06:07:03;99776.81;;;4.70;100.00
24858;BME280;12935;50.782;6.074;2023-04-26T06:09:30;99792.53;;;4.80;100.00
24858;BME280;12935;50.782;6.074;2023-04-26T06:11:56;99797.69;;;5.01;100.00
24858;BME280;12935;50.782;6.074;2023-04-26T06:14:21;99788.59;;;5.09;100.00
24858;BME280;12935;50.782;6.074;2023-04-26T06:16:46;99795.59;;;5.26;100.00
24858;BME280;12935;50.782;6.074;2023-04-26T06:19:12;99787.66;;;5.17;100.00
24858;BME280;12935;50.782;6.074;2023-04-26T06:21:37;99785.72;;;5.34;100.00
24858;BME280;12935;50.782;6.074;2023-04-26T06:24:02;99780.69;;;5.51;100.00
24858;BME280;12935;50.782;6.074;2023-04-26T06:26:28;99795.84;;;5.37;100.00
24858;BME280;12935;50.782;6.074;2023-04-26T06:28:54;99796.28;;;5.23;100.00
24858;BME280;12935;50.782;6.074;2023-04-26T06:31:20;99810.03;;;5.30;100.00
24858;BME280;12935;50.782;6.074;2023-04-26T06:33:46;99802.16;;;5.25;100.00
24858;BME280;12935;50.782;6.074;2023-04-26T06:36:12;99801.19;;;5.33;100.00
24858;BME280;12935;50.782;6.074;2023-04-26T06:38:37;99795.22;;;5.43;100.00
24858;BME280;12935;50.782;6.074;2023-04-26T06:41:02;99795.66;;;5.61;100.00
24858;BME280;12935;50.782;6.074;2023-04-26T06:43:28;99801.56;;;5.82;100.00
24858;BME280;12935;50.782;6.074;2023-04-26T06:45:53;99801.81;;;5.77;100.00
24858;BME280;12935;50.782;6.074;2023-04-26T06:48:18;99804.09;;;5.91;100.00
24858;BME280;12935;50.782;6.074;2023-04-26T06:50:44;99807.81;;;6.02;100.00
24858;BME280;12935;50.782;6.074;2023-04-26T06:53:09;99806.75;;;6.26;100.00
24858;BME280;12935;50.782;6.074;2023-04-26T06:55:34;99802.09;;;6.07;100.00
24858;BME280;12935;50.782;6.074;2023-04-26T06:58:00;99806.00;;;5.90;100.00
24858;BME280;12935;50.782;6.074;2023-04-26T07:00:25;99799.69;;;5.86;100.00
24858;BME280;12935;50.782;6.074;2023-04-26T07:02:50;99800.94;;;5.89;100.00
24858;BME280;12935;50.782;6.074;2023-04-26T07:05:16;99803.69;;;6.08;100.00
24858;BME280;12935;50.782;6.074;2023-04-26T07:07:41;99805.97;;;6.45;100.00
24858;BME280;12935;50.782;6.074;2023-04-26T07:10:08;99806.38;;;6.47;100.00
24858;BME280;12935;50.782;6.074;2023-04-26T07:12:33;99803.38;;;6.71;100.00
24858;BME280;12935;50.782;6.074;2023-04-26T07:14:59;99806.72;;;6.64;100.00
24858;BME280;12935;50.782;6.074;2023-04-26T07:17:25;99810.38;;;6.72;100.00
24858;BME280;12935;50.782;6.074;2023-04-26T07:19:51;99814.59;;;6.69;100.00
24858;BME280;12935;50.782;6.074;2023-04-26T07:22:16;99816.31;;;6.58;97.50
24858;BME280;12935;50.782;6.074;2023-04-26T07:24:41;99815.81;;;6.53;97.99
24858;BME280;12935;50.782;6.074;2023-04-26T07:27:06;99812.19;;;6.87;99.11
24858;BME280;12935;50.782;6.074;2023-04-26T07:29:32;99807.38;;;7.00;95.66
24858;BME280;12935;50.782;6.074;2023-04-26T07:31:57;99818.34;;;6.84;93.51
24858;BME280;12935;50.782;6.074;2023-04-26T07:34:23;99812.41;;;6.79;92.53
24858;BME280;12935;50.782;6.074;2023-04-26T07:36:48;99805.38;;;6.74;91.05
24858;BME280;12935;50.782;6.074;2023-04-26T07:39:13;99808.03;;;7.16;92.84
24858;BME280;12935;50.782;6.074;2023-04-26T07:41:39;99797.22;;;7.20;88.28
24858;BME280;12935;50.782;6.074;2023-04-26T07:44:05;99795.84;;;7.07;88.57
24858;BME280;12935;50.782;6.074;2023-04-26T07:46:32;99794.31;;;7.58;89.06
24858;BME280;12935;50.782;6.074;2023-04-26T07:48:58;99780.78;;;7.62;85.74
24858;BME280;12935;50.782;6.074;2023-04-26T07:51:23;99777.81;;;7.70;83.26
24858;BME280;12935;50.782;6.074;2023-04-26T07:53:48;99786.38;;;7.72;81.56
24858;BME280;12935;50.782;6.074;2023-04-26T07:56:13;99789.09;;;7.46;79.19
24858;BME280;12935;50.782;6.074;2023-04-26T07:58:39;99788.09;;;7.31;80.44
24858;BME280;12935;50.782;6.074;2023-04-26T08:01:04;99780.59;;;7.25;81.89
24858;BME280;12935;50.782;6.074;2023-04-26T08:03:30;99776.56;;;7.15;82.57
24858;BME280;12935;50.782;6.074;2023-04-26T08:05:56;99786.03;;;7.25;82.46
24858;BME280;12935;50.782;6.074;2023-04-26T08:08:24;99781.16;;;7.34;82.19
24858;BME280;12935;50.782;6.074;2023-04-26T08:10:49;99780.78;;;7.62;82.38
24858;BME280;12935;50.782;6.074;2023-04-26T08:13:15;99780.31;;;8.13;82.61
24858;BME280;12935;50.782;6.074;2023-04-26T08:15:40;99791.31;;;8.53;81.29
24858;BME280;12935;50.782;6.074;2023-04-26T08:18:06;99798.25;;;8.47;80.71
24858;BME280;12935;50.782;6.074;2023-04-26T08:20:31;99792.31;;;8.08;77.91
24858;BME280;12935;50.782;6.074;2023-04-26T08:22:57;99803.78;;;8.24;78.61
24858;BME280;12935;50.782;6.074;2023-04-26T08:25:23;99801.97;;;8.02;78.68
24858;BME280;12935;50.782;6.074;2023-04-26T08:27:48;99801.72;;;7.84;78.57
24858;BME280;12935;50.782;6.074;2023-04-26T08:30:14;99808.88;;;7.69;80.20
24858;BME280;12935;50.782;6.074;2023-04-26T08:32:39;99799.16;;;7.68;82.44
24858;BME280;12935;50.782;6.074;2023-04-26T08:35:05;99799.59;;;7.70;80.48
24858;BME280;12935;50.782;6.074;2023-04-26T08:37:30;99802.44;;;7.81;80.20
24858;BME280;12935;50.782;6.074;2023-04-26T08:39:55;99808.25;;;8.09;81.28
24858;BME280;12935;50.782;6.074;2023-04-26T08:42:26;99800.69;;;8.56;80.99
24858;BME280;12935;50.782;6.074;2023-04-26T08:44:52;99803.38;;;8.89;78.83
24858;BME280;12935;50.782;6.074;2023-04-26T08:47:37;99794.88;;;8.57;74.21
24858;BME280;12935;50.782;6.074;2023-04-26T08:50:04;99799.53;;;8.27;75.74
24858;BME280;12935;50.782;6.074;2023-04-26T08:52:31;99806.81;;;8.19;75.54
24858;BME280;12935;50.782;6.074;2023-04-26T08:54:58;99792.53;;;8.26;75.39
24858;BME280;12935;50.782;6.074;2023-04-26T08:57:24;99796.72;;;7.90;71.22
24858;BME280;12935;50.782;6.074;2023-04-26T08:59:51;99795.56;;;7.91;72.87
24858;BME280;12935;50.782;6.074;2023-04-26T09:02:19;99795.38;;;8.33;72.10
24858;BME280;12935;50.782;6.074;2023-04-26T09:04:45;99794.84;;;7.94;68.38
24858;BME280;12935;50.782;6.074;2023-04-26T09:07:20;99792.31;;;8.08;70.78
24858;BME280;12935;50.782;6.074;2023-04-26T09:09:48;99792.47;;;8.22;67.67
24858;BME280;12935;50.782;6.074;2023-04-26T09:12:18;99793.41;;;8.03;67.52
24858;BME280;12935;50.782;6.074;2023-04-26T09:14:47;99787.09;;;7.96;67.36
24858;BME280;12935;50.782;6.074;2023-04-26T09:17:28;99792.66;;;8.06;67.22
24858;BME280;12935;50.782;6.074;2023-04-26T09:19:55;99792.91;;;7.94;68.66
24858;BME280;12935;50.782;6.074;2023-04-26T09:24:53;99778.56;;;8.27;66.79
24858;BME280;12935;50.782;6.074;2023-04-26T09:27:19;99785.34;;;8.40;65.91
24858;BME280;12935;50.782;6.074;2023-04-26T09:32:25;99783.50;;;9.95;62.23
24858;BME280;12935;50.782;6.074;2023-04-26T09:34:51;99785.84;;;9.89;60.31
24858;BME280;12935;50.782;6.074;2023-04-26T09:37:16;99784.09;;;9.63;60.15
24858;BME280;12935;50.782;6.074;2023-04-26T09:39:42;99774.88;;;9.85;61.19
24858;BME280;12935;50.782;6.074;2023-04-26T09:42:08;99769.09;;;9.98;57.81
24858;BME280;12935;50.782;6.074;2023-04-26T09:44:34;99765.34;;;10.27;58.40
24858;BME280;12935;50.782;6.074;2023-04-26T09:49:32;99763.56;;;11.06;55.71
24858;BME280;12935;50.782;6.074;2023-04-26T09:51:59;99771.00;;;11.16;52.99
24858;BME280;12935;50.782;6.074;2023-04-26T09:54:37;99772.16;;;11.36;52.33
24858;BME280;12935;50.782;6.074;2023-04-26T09:57:02;99770.97;;;11.62;51.87
24858;BME280;12935;50.782;6.074;2023-04-26T09:59:41;99779.19;;;11.09;51.92
24858;BME280;12935;50.782;6.074;2023-04-26T10:02:24;99785.41;;;10.70;51.37
24858;BME280;12935;50.782;6.074;2023-04-26T10:04:52;99780.75;;;11.24;51.99
24858;BME280;12935;50.782;6.074;2023-04-26T10:07:19;99778.00;;;11.59;50.68
24858;BME280;12935;50.782;6.074;2023-04-26T10:09:45;99769.38;;;11.75;49.91
24858;BME280;12935;50.782;6.074;2023-04-26T10:12:13;99774.50;;;11.38;52.39
24858;BME280;12935;50.782;6.074;2023-04-26T10:14:39;99764.34;;;10.96;51.60
24858;BME280;12935;50.782;6.074;2023-04-26T10:17:05;99762.38;;;10.93;52.74
24858;BME280;12935;50.782;6.074;2023-04-26T10:19:33;99763.16;;;11.25;50.51
24858;BME280;12935;50.782;6.074;2023-04-26T10:22:04;99750.28;;;11.15;50.64
24858;BME280;12935;50.782;6.074;2023-04-26T10:24:30;99759.66;;;11.07;50.76
24858;BME280;12935;50.782;6.074;2023-04-26T10:26:55;99747.94;;;11.06;52.42
24858;BME280;12935;50.782;6.074;2023-04-26T10:29:23;99751.84;;;11.02;52.59
24858;BME280;12935;50.782;6.074;2023-04-26T10:32:08;99760.00;;;10.63;52.01
24858;BME280;12935;50.782;6.074;2023-04-26T10:34:35;99754.16;;;10.75;52.61
24858;BME280;12935;50.782;6.074;2023-04-26T10:39:36;99749.44;;;11.50;49.25
24858;BME280;12935;50.782;6.074;2023-04-26T10:42:26;99748.72;;;10.96;50.75
24858;BME280;12935;50.782;6.074;2023-04-26T10:44:56;99746.72;;;10.65;51.96
24858;BME280;12935;50.782;6.074;2023-04-26T10:47:33;99742.81;;;10.51;52.57
24858;BME280;12935;50.782;6.074;2023-04-26T10:52:28;99740.50;;;11.03;50.86
24858;BME280;12935;50.782;6.074;2023-04-26T10:54:55;99735.38;;;11.80;51.61
24858;BME280;12935;50.782;6.074;2023-04-26T10:57:22;99735.88;;;12.99;50.06
24858;BME280;12935;50.782;6.074;2023-04-26T11:03:03;99741.31;;;13.89;48.04
24858;BME280;12935;50.782;6.074;2023-04-26T11:08:26;99740.78;;;13.67;47.65
24858;BME280;12935;50.782;6.074;2023-04-26T11:10:56;99729.72;;;13.74;47.02
24858;BME280;12935;50.782;6.074;2023-04-26T11:13:21;99726.22;;;13.70;46.64
24858;BME280;12935;50.782;6.074;2023-04-26T11:15:52;99720.72;;;13.36;45.96
24858;BME280;12935;50.782;6.074;2023-04-26T11:18:18;99718.28;;;12.93;45.54
24858;BME280;12935;50.782;6.074;2023-04-26T11:20:45;99708.28;;;12.73;46.00
24858;BME280;12935;50.782;6.074;2023-04-26T11:23:11;99711.41;;;13.23;46.13
24858;BME280;12935;50.782;6.074;2023-04-26T11:25:38;99712.66;;;13.56;45.46
24858;BME280;12935;50.782;6.074;2023-04-26T11:28:04;99704.66;;;13.31;45.79
24858;BME280;12935;50.782;6.074;2023-04-26T11:30:31;99700.34;;;12.82;45.46
24858;BME280;12935;50.782;6.074;2023-04-26T11:33:01;99686.78;;;13.16;45.22
24858;BME280;12935;50.782;6.074;2023-04-26T11:35:27;99700.75;;;12.84;44.62
24858;BME280;12935;50.782;6.074;2023-04-26T11:37:57;99698.03;;;12.77;45.78
24858;BME280;12935;50.782;6.074;2023-04-26T11:40:22;99702.56;;;13.01;45.99
24858;BME280;12935;50.782;6.074;2023-04-26T11:42:47;99703.75;;;13.45;45.90
24858;BME280;12935;50.782;6.074;2023-04-26T11:45:16;99706.13;;;13.80;45.38
24858;BME280;12935;50.782;6.074;2023-04-26T11:47:42;99705.56;;;13.92;44.63
24858;BME280;12935;50.782;6.074;2023-04-26T11:50:08;99716.88;;;13.64;44.71
24858;BME280;12935;50.782;6.074;2023-04-26T11:52:34;99706.59;;;13.34;44.79
24858;BME280;12935;50.782;6.074;2023-04-26T11:55:00;99700.13;;;14.50;45.00
24858;BME280;12935;50.782;6.074;2023-04-26T11:57:29;99707.50;;;14.26;43.85
24858;BME280;12935;50.782;6.074;2023-04-26T12:00:12;99703.13;;;13.67;42.90
24858;BME280;12935;50.782;6.074;2023-04-26T12:02:44;99696.31;;;13.42;44.59
24858;BME280;12935;50.782;6.074;2023-04-26T12:05:19;99697.34;;;13.17;43.19
24858;BME280;12935;50.782;6.074;2023-04-26T12:07:49;99697.88;;;14.11;42.77
24858;BME280;12935;50.782;6.074;2023-04-26T12:10:17;99699.84;;;14.94;41.53
24858;BME280;12935;50.782;6.074;2023-04-26T12:12:47;99703.53;;;15.31;40.99
24858;BME280;12935;50.782;6.074;2023-04-26T12:15:13;99695.00;;;15.25;38.60
24858;BME280;12935;50.782;6.074;2023-04-26T12:17:39;99693.94;;;14.12;40.48
24858;BME280;12935;50.782;6.074;2023-04-26T12:20:09;99702.16;;;13.47;42.53
24858;BME280;12935;50.782;6.074;2023-04-26T12:22:35;99704.97;;;13.40;44.25
24858;BME280;12935;50.782;6.074;2023-04-26T12:25:04;99705.38;;;13.76;44.42
24858;BME280;12935;50.782;6.074;2023-04-26T12:27:30;99708.59;;;14.62;44.91
24858;BME280;12935;50.782;6.074;2023-04-26T12:29:56;99701.13;;;14.86;43.76
24858;BME280;12935;50.782;6.074;2023-04-26T12:32:21;99693.31;;;15.08;41.89
24858;BME280;12935;50.782;6.074;2023-04-26T12:34:47;99700.72;;;15.77;42.45
24858;BME280;12935;50.782;6.074;2023-04-26T12:37:12;99694.84;;;17.16;40.79
24858;BME280;12935;50.782;6.074;2023-04-26T12:39:38;99693.81;;;18.13;37.34
24858;BME280;12935;50.782;6.074;2023-04-26T12:42:03;99692.19;;;18.53;36.60
24858;BME280;12935;50.782;6.074;2023-04-26T12:44:28;99683.00;;;18.44;36.42
24858;BME280;12935;50.782;6.074;2023-04-26T12:46:54;99688.66;;;17.86;37.60
24858;BME280;12935;50.782;6.074;2023-04-26T12:49:19;99682.53;;;16.72;37.97
24858;BME280;12935;50.782;6.074;2023-04-26T12:51:45;99689.41;;;14.82;40.16
24858;BME280;12935;50.782;6.074;2023-04-26T12:54:10;99681.78;;;14.43;41.80
24858;BME280;12935;50.782;6.074;2023-04-26T12:56:36;99679.41;;;15.38;43.32
24858;BME280;12935;50.782;6.074;2023-04-26T12:59:08;99690.06;;;15.79;40.92
24858;BME280;12935;50.782;6.074;2023-04-26T13:01:33;99690.41;;;18.47;38.15
24858;BME280;12935;50.782;6.074;2023-04-26T13:03:58;99685.91;;;22.48;31.90
24858;BME280;12935;50.782;6.074;2023-04-26T13:06:25;99686.59;;;20.17;32.00
24858;BME280;12935;50.782;6.074;2023-04-26T13:08:52;99689.09;;;18.51;35.12
24858;BME280;12935;50.782;6.074;2023-04-26T13:11:18;99688.28;;;17.26;37.02
24858;BME280;12935;50.782;6.074;2023-04-26T13:13:43;99692.63;;;17.27;37.95
24858;BME280;12935;50.782;6.074;2023-04-26T13:16:08;99698.97;;;15.44;38.20